createdAt,value
2019-04-27T04:01:04.766Z,986.82
2019-04-27T04:02:04.949Z,986.81
2019-04-27T04:03:05.113Z,986.79
2019-04-27T04:04:05.283Z,986.78
2019-04-27T04:05:05.452Z,986.78
2019-04-27T04:06:05.630Z,986.78
2019-04-27T04:07:05.796Z,986.77
2019-04-27T04:08:05.961Z,986.77
2019-04-27T04:09:06.146Z,986.82
2019-04-27T04:10:06.307Z,986.84
2019-04-27T04:11:06.481Z,986.84
2019-04-27T04:12:06.654Z,986.82
2019-04-27T04:13:06.839Z,986.86
2019-04-27T04:14:06.993Z,986.84
2019-04-27T04:15:09.789Z,986.89
2019-04-27T04:16:07.926Z,986.86
2019-04-27T04:17:09.873Z,986.88
2019-04-27T04:18:09.664Z,986.85
2019-04-27T04:19:09.750Z,986.87
2019-04-27T04:20:10.090Z,986.86
2019-04-27T04:21:09.579Z,986.87
2019-04-27T04:22:10.295Z,986.89
2019-04-27T04:23:10.679Z,986.90
2019-04-27T04:24:09.534Z,986.88
2019-04-27T04:25:10.733Z,986.93
2019-04-27T04:26:09.882Z,986.94
2019-04-27T04:27:09.931Z,986.97
2019-04-27T04:28:09.553Z,986.94
2019-04-27T04:29:10.444Z,986.93
2019-04-27T04:30:12.192Z,986.90
2019-04-27T04:31:13.435Z,986.92
2019-04-27T04:32:10.760Z,986.95
2019-04-27T04:33:10.566Z,986.94
2019-04-27T04:34:12.057Z,986.92
2019-04-27T04:35:10.572Z,986.96
2019-04-27T04:36:10.748Z,986.98
2019-04-27T04:37:10.910Z,987.00
2019-04-27T04:38:11.092Z,986.98
2019-04-27T04:39:12.451Z,987.01
2019-04-27T04:40:11.419Z,987.00
2019-04-27T04:41:11.592Z,987.07
2019-04-27T04:42:11.754Z,987.08
2019-04-27T04:43:12.088Z,987.06
2019-04-27T04:44:12.459Z,987.06
2019-04-27T04:45:12.316Z,987.04
2019-04-27T04:46:13.318Z,987.04
2019-04-27T04:47:12.663Z,987.01
2019-04-27T04:48:12.832Z,987.02
2019-04-27T04:49:13.009Z,987.01
2019-04-27T04:50:15.214Z,987.04
2019-04-27T04:51:13.350Z,986.97
2019-04-27T04:52:13.521Z,987.04
2019-04-27T04:53:13.690Z,987.04
2019-04-27T04:54:13.863Z,987.03
2019-04-27T04:55:14.036Z,987.04
2019-04-27T04:56:14.203Z,987.05
2019-04-27T04:57:14.376Z,987.07
2019-04-27T04:58:14.548Z,987.08
2019-04-27T04:59:14.723Z,987.09
2019-04-27T05:00:14.888Z,987.09
2019-04-27T05:01:15.057Z,987.08
2019-04-27T05:02:15.227Z,987.09
2019-04-27T05:03:15.398Z,987.09
2019-04-27T05:04:15.568Z,987.12
2019-04-27T05:05:15.734Z,987.10
2019-04-27T05:06:15.902Z,987.10
2019-04-27T05:07:16.070Z,987.11
2019-04-27T05:08:16.240Z,987.10
2019-04-27T05:09:16.416Z,987.10
2019-04-27T05:10:16.584Z,987.08
2019-04-27T05:11:16.750Z,987.10
2019-04-27T05:12:16.921Z,987.09
2019-04-27T05:13:17.093Z,987.09
2019-04-27T05:14:17.264Z,987.05
2019-04-27T05:15:19.222Z,987.11
2019-04-27T05:16:18.936Z,987.08
2019-04-27T05:17:19.450Z,987.02
2019-04-27T05:18:19.176Z,987.02
2019-04-27T05:19:18.894Z,987.03
2019-04-27T05:20:24.396Z,987.01
2019-04-27T05:21:18.575Z,987.02
2019-04-27T05:22:19.541Z,987.01
2019-04-27T05:23:18.866Z,987.02
2019-04-27T05:24:19.310Z,986.99
2019-04-27T05:25:19.153Z,987.02
2019-04-27T05:26:20.764Z,987.00
2019-04-27T05:27:19.495Z,987.04
2019-04-27T05:28:19.664Z,987.04
2019-04-27T05:29:19.835Z,987.01
2019-04-27T05:30:20.017Z,987.02
2019-04-27T05:31:20.189Z,987.02
2019-04-27T05:32:20.697Z,987.04
2019-04-27T05:33:20.529Z,987.05
2019-04-27T05:34:20.703Z,987.06
2019-04-27T05:35:20.872Z,987.06
2019-04-27T05:36:21.037Z,987.04
2019-04-27T05:37:27.852Z,987.02
2019-04-27T05:38:21.380Z,987.01
2019-04-27T05:39:24.880Z,987.03
2019-04-27T05:40:21.725Z,987.03
2019-04-27T05:41:21.881Z,987.07
2019-04-27T05:42:22.050Z,987.06
2019-04-27T05:43:25.490Z,987.05
2019-04-27T05:44:22.394Z,987.03
2019-04-27T05:45:22.946Z,987.04
2019-04-27T05:46:22.736Z,987.03
2019-04-27T05:47:22.907Z,987.02
2019-04-27T05:48:27.590Z,987.03
2019-04-27T05:49:23.234Z,987.05
2019-04-27T05:50:35.310Z,987.04
2019-04-27T05:51:23.572Z,987.02
2019-04-27T05:52:23.760Z,987.02
2019-04-27T05:53:23.913Z,987.00
2019-04-27T05:54:24.075Z,986.98
2019-04-27T05:55:24.226Z,986.99
2019-04-27T05:56:24.465Z,987.01
2019-04-27T05:57:24.539Z,987.00
2019-04-27T05:58:24.724Z,986.94
2019-04-27T05:59:24.912Z,986.92
2019-04-27T06:00:25.039Z,986.97
2019-04-27T06:01:25.215Z,986.96
2019-04-27T06:02:25.380Z,986.95
2019-04-27T06:03:25.539Z,986.98
2019-04-27T06:04:25.704Z,986.94
2019-04-27T06:05:25.864Z,986.91
2019-04-27T06:06:26.042Z,986.94
2019-04-27T06:07:26.198Z,986.92
2019-04-27T06:08:26.344Z,986.89
2019-04-27T06:09:26.517Z,986.89
2019-04-27T06:10:26.682Z,986.86
2019-04-27T06:11:28.181Z,986.90
2019-04-27T06:12:27.015Z,986.90
2019-04-27T06:13:29.202Z,986.90
2019-04-27T06:14:29.065Z,986.88
2019-04-27T06:15:28.373Z,986.87
2019-04-27T06:16:29.392Z,986.87
2019-04-27T06:17:29.655Z,986.89
2019-04-27T06:18:29.418Z,986.84
2019-04-27T06:19:29.137Z,986.86
2019-04-27T06:20:28.643Z,986.82
2019-04-27T06:21:29.513Z,986.84
2019-04-27T06:22:29.273Z,986.88
2019-04-27T06:23:29.055Z,986.84
2019-04-27T06:24:29.763Z,986.84
2019-04-27T06:25:30.536Z,986.83
2019-04-27T06:26:30.075Z,986.86
2019-04-27T06:27:30.664Z,986.92
2019-04-27T06:28:31.462Z,986.89
2019-04-27T06:29:29.795Z,986.90
2019-04-27T06:30:29.993Z,986.87
2019-04-27T06:31:30.134Z,986.84
2019-04-27T06:32:30.282Z,986.81
2019-04-27T06:33:34.306Z,986.82
2019-04-27T06:34:31.009Z,986.87
2019-04-27T06:35:30.809Z,986.88
2019-04-27T06:36:30.987Z,986.85
2019-04-27T06:37:31.137Z,986.88
2019-04-27T06:38:31.297Z,986.84
2019-04-27T06:39:31.468Z,986.84
2019-04-27T06:40:31.643Z,986.84
2019-04-27T06:41:31.812Z,986.81
2019-04-27T06:42:31.988Z,986.86
2019-04-27T06:43:32.180Z,986.82
2019-04-27T06:44:32.339Z,986.81
2019-04-27T06:45:32.501Z,986.79
2019-04-27T06:46:32.678Z,986.79
2019-04-27T06:47:32.842Z,986.80
2019-04-27T06:48:33.018Z,986.83
2019-04-27T06:49:33.207Z,986.80
2019-04-27T06:50:33.364Z,986.77
2019-04-27T06:51:33.529Z,986.83
2019-04-27T06:52:33.688Z,986.75
2019-04-27T06:53:33.841Z,986.76
2019-04-27T06:54:34.021Z,986.79
2019-04-27T06:55:34.188Z,986.74
2019-04-27T06:56:34.342Z,986.75
2019-04-27T06:57:34.502Z,986.70
2019-04-27T06:58:34.674Z,986.73
2019-04-27T06:59:34.837Z,986.74
2019-04-27T07:00:35.013Z,986.75
2019-04-27T07:01:35.165Z,986.77
2019-04-27T07:02:35.308Z,986.77
2019-04-27T07:03:35.491Z,986.72
2019-04-27T07:04:35.655Z,986.72
2019-04-27T07:05:35.823Z,986.71
2019-04-27T07:06:35.979Z,986.70
2019-04-27T07:07:36.143Z,986.73
2019-04-27T07:10:09.383Z,986.65
2019-04-27T07:11:11.477Z,986.65
2019-04-27T07:12:09.754Z,986.67
2019-04-27T07:13:09.881Z,986.69
2019-04-27T07:14:11.731Z,986.66
2019-04-27T07:15:10.217Z,986.59
2019-04-27T07:16:10.395Z,986.57
2019-04-27T07:17:10.566Z,986.57
2019-04-27T07:18:10.737Z,986.54
2019-04-27T07:19:10.908Z,986.61
2019-04-27T07:20:11.082Z,986.62
2019-04-27T07:21:18.943Z,986.59
2019-04-27T07:22:11.532Z,986.59
2019-04-27T07:23:11.600Z,986.58
2019-04-27T07:24:11.772Z,986.60
2019-04-27T07:25:11.946Z,986.63
2019-04-27T07:26:12.115Z,986.65
2019-04-27T07:27:12.284Z,986.66
2019-04-27T07:28:12.451Z,986.64
2019-04-27T07:29:12.622Z,986.61
2019-04-27T07:30:12.802Z,986.61
2019-04-27T07:31:12.970Z,986.63
2019-04-27T07:32:13.140Z,986.63
2019-04-27T07:33:13.311Z,986.54
2019-04-27T07:34:13.493Z,986.52
2019-04-27T07:35:13.655Z,986.47
2019-04-27T07:36:13.827Z,986.50
2019-04-27T07:37:14.001Z,986.46
2019-04-27T07:38:14.168Z,986.42
2019-04-27T07:39:14.341Z,986.40
2019-04-27T07:40:14.517Z,986.48
2019-04-27T07:41:14.684Z,986.44
2019-04-27T07:42:14.859Z,986.53
2019-04-27T07:43:15.028Z,986.62
2019-04-27T07:44:15.200Z,986.57
2019-04-27T07:45:15.373Z,986.59
2019-04-27T07:46:15.540Z,986.56
2019-04-27T07:47:15.767Z,986.56
2019-04-27T07:48:15.875Z,986.50
2019-04-27T07:49:16.051Z,986.47
2019-04-27T07:50:16.220Z,986.44
2019-04-27T07:51:29.580Z,986.39
2019-04-27T07:52:16.571Z,986.41
2019-04-27T07:53:16.719Z,986.41
2019-04-27T07:54:16.895Z,986.39
2019-04-27T07:55:18.567Z,986.40
2019-04-27T07:56:19.037Z,986.38
2019-04-27T07:57:17.382Z,986.40
2019-04-27T07:58:17.540Z,986.43
2019-04-27T07:59:18.852Z,986.43
2019-04-27T08:00:19.082Z,986.52
2019-04-27T08:01:19.274Z,986.45
2019-04-27T08:02:19.021Z,986.41
2019-04-27T08:03:19.559Z,986.43
2019-04-27T08:04:18.819Z,986.45
2019-04-27T08:05:19.216Z,986.35
2019-04-27T08:06:19.028Z,986.37
2019-04-27T08:07:19.610Z,986.40
2019-04-27T08:08:19.225Z,986.39
2019-04-27T08:09:19.372Z,986.39
2019-04-27T08:10:19.538Z,986.44
2019-04-27T08:11:19.785Z,986.42
2019-04-27T08:12:20.781Z,986.48
2019-04-27T08:13:20.065Z,986.53
2019-04-27T08:14:20.201Z,986.49
2019-04-27T08:15:20.362Z,986.41
2019-04-27T08:16:20.732Z,986.46
2019-04-27T08:17:20.670Z,986.50
2019-04-27T08:18:20.885Z,986.45
2019-04-27T08:19:21.037Z,986.52
2019-04-27T08:20:21.366Z,986.56
2019-04-27T08:21:21.336Z,986.39
2019-04-27T08:22:21.497Z,986.45
2019-04-27T08:23:21.703Z,986.51
2019-04-27T08:24:21.830Z,986.45
2019-04-27T08:25:21.993Z,986.49
2019-04-27T08:26:22.207Z,986.42
2019-04-27T08:27:22.381Z,986.38
2019-04-27T08:28:22.544Z,986.46
2019-04-27T08:29:22.714Z,986.49
2019-04-27T08:30:22.910Z,986.31
2019-04-27T08:31:23.141Z,986.32
2019-04-27T08:32:23.265Z,986.29
2019-04-27T08:33:23.418Z,986.40
2019-04-27T08:34:23.561Z,986.39
2019-04-27T08:35:23.739Z,986.30
2019-04-27T08:36:23.879Z,986.35
2019-04-27T08:37:24.052Z,986.34
2019-04-27T08:38:24.226Z,986.30
2019-04-27T08:39:24.388Z,986.34
2019-04-27T08:40:24.563Z,986.37
2019-04-27T08:41:24.784Z,986.31
2019-04-27T08:42:24.900Z,986.33
2019-04-27T08:43:25.053Z,986.27
2019-04-27T08:44:25.231Z,986.25
2019-04-27T08:45:25.402Z,986.27
2019-04-27T08:46:25.588Z,986.26
2019-04-27T08:47:25.758Z,986.27
2019-04-27T08:48:34.674Z,986.24
2019-04-27T08:49:26.236Z,986.27
2019-04-27T08:50:26.331Z,986.20
2019-04-27T08:51:26.534Z,986.26
2019-04-27T08:52:26.638Z,986.21
2019-04-27T08:53:26.808Z,986.17
2019-04-27T08:54:26.961Z,986.15
2019-04-27T08:55:27.121Z,986.07
2019-04-27T08:56:27.294Z,986.02
2019-04-27T08:57:28.994Z,986.04
2019-04-27T08:58:28.601Z,986.00
2019-04-27T08:59:29.554Z,986.04
2019-04-27T09:00:29.157Z,986.03
2019-04-27T09:01:29.911Z,985.99
2019-04-27T09:02:39.782Z,986.06
2019-04-27T09:03:29.431Z,986.01
2019-04-27T09:04:28.882Z,986.06
2019-04-27T09:05:29.126Z,986.02
2019-04-27T09:06:31.165Z,986.09
2019-04-27T09:07:31.626Z,986.09
2019-04-27T09:08:29.344Z,986.06
2019-04-27T09:09:29.603Z,986.04
2019-04-27T09:10:29.686Z,986.07
2019-04-27T09:11:29.855Z,986.06
2019-04-27T09:12:30.010Z,985.95
2019-04-27T09:13:30.177Z,985.84
2019-04-27T09:14:30.342Z,985.81
2019-04-27T09:15:30.518Z,985.91
2019-04-27T09:16:30.688Z,985.86
2019-04-27T09:17:30.989Z,985.84
2019-04-27T09:18:32.598Z,985.89
2019-04-27T09:19:31.193Z,985.84
2019-04-27T09:20:31.365Z,985.94
2019-04-27T09:21:31.533Z,985.96
2019-04-27T09:22:31.717Z,985.91
2019-04-27T09:23:31.888Z,985.88
2019-04-27T09:24:32.075Z,985.80
2019-04-27T09:25:32.212Z,986.07
2019-04-27T09:26:32.397Z,985.98
2019-04-27T09:27:32.550Z,986.22
2019-04-27T09:28:32.727Z,985.96
2019-04-27T09:29:32.888Z,985.85
2019-04-27T09:30:33.059Z,985.76
2019-04-27T09:31:33.225Z,985.71
2019-04-27T09:32:33.398Z,985.66
2019-04-27T09:33:33.565Z,985.64
2019-04-27T09:34:33.736Z,985.67
2019-04-27T09:35:35.573Z,985.70
2019-04-27T09:36:34.070Z,985.65
2019-04-27T09:37:34.248Z,985.62
2019-04-27T09:38:35.764Z,985.63
2019-04-27T09:39:35.878Z,985.58
2019-04-27T09:40:36.070Z,985.66
2019-04-27T09:41:36.618Z,985.67
2019-04-27T09:42:38.151Z,985.61
2019-04-27T09:43:36.771Z,985.66
2019-04-27T09:44:37.086Z,985.59
2019-04-27T09:45:37.204Z,985.58
2019-04-27T09:46:36.409Z,985.56
2019-04-27T09:47:36.864Z,985.55
2019-04-27T09:48:36.292Z,985.58
2019-04-27T09:49:38.078Z,985.59
2019-04-27T09:50:36.435Z,985.56
2019-04-27T09:51:36.605Z,985.56
2019-04-27T09:52:36.773Z,985.59
2019-04-27T09:53:36.932Z,985.70
2019-04-27T09:54:37.103Z,985.59
2019-04-27T09:55:37.276Z,985.58
2019-04-27T09:56:37.442Z,985.57
2019-04-27T09:57:37.607Z,985.51
2019-04-27T09:58:37.778Z,985.58
2019-04-27T09:59:39.708Z,985.53
2019-04-27T10:00:38.123Z,985.56
2019-04-27T10:01:38.297Z,985.56
2019-04-27T10:02:38.468Z,985.56
2019-04-27T10:03:38.637Z,985.50
2019-04-27T10:04:38.792Z,985.56
2019-04-27T10:05:38.968Z,985.57
2019-04-27T10:06:39.153Z,985.54
2019-04-27T10:07:39.326Z,985.54
2019-04-27T10:08:39.490Z,985.51
2019-04-27T10:09:39.656Z,985.53
2019-04-27T10:10:39.822Z,985.55
2019-04-27T10:11:39.996Z,985.61
2019-04-27T10:12:40.166Z,985.53
2019-04-27T10:13:40.330Z,985.52
2019-04-27T10:14:40.512Z,985.53
2019-04-27T10:15:40.692Z,985.51
2019-04-27T10:16:40.860Z,985.50
2019-04-27T10:17:41.034Z,985.45
2019-04-27T10:18:41.187Z,985.44
2019-04-27T10:19:41.362Z,985.40
2019-04-27T10:20:41.535Z,985.40
2019-04-27T10:21:41.706Z,985.48
2019-04-27T10:22:43.724Z,985.45
2019-04-27T10:23:42.043Z,985.45
2019-04-27T10:24:42.221Z,985.35
2019-04-27T10:25:42.415Z,985.36
2019-04-27T10:26:43.857Z,985.33
2019-04-27T10:27:42.731Z,985.38
2019-04-27T10:28:42.904Z,985.40
2019-04-27T10:29:43.078Z,985.39
2019-04-27T10:30:43.249Z,985.33
2019-04-27T10:31:43.423Z,985.31
2019-04-27T10:32:43.592Z,985.32
2019-04-27T10:33:43.773Z,985.28
2019-04-27T10:34:43.937Z,985.30
2019-04-27T10:35:44.110Z,985.30
2019-04-27T10:36:46.045Z,985.32
2019-04-27T10:37:44.444Z,985.26
2019-04-27T10:38:45.905Z,985.20
2019-04-27T10:39:45.963Z,985.27
2019-04-27T10:40:44.941Z,985.21
2019-04-27T10:41:46.341Z,985.25
2019-04-27T10:42:45.915Z,985.28
2019-04-27T10:43:45.447Z,985.28
2019-04-27T10:44:46.158Z,985.32
2019-04-27T10:45:46.249Z,985.29
2019-04-27T10:46:45.962Z,985.19
2019-04-27T10:47:49.325Z,985.22
2019-04-27T10:48:46.297Z,985.22
2019-04-27T10:49:48.406Z,985.21
2019-04-27T10:50:46.765Z,985.21
2019-04-27T10:51:46.812Z,985.22
2019-04-27T10:52:53.243Z,985.15
2019-04-27T10:53:47.150Z,985.25
2019-04-27T10:54:47.313Z,985.16
2019-04-27T10:55:47.485Z,985.18
2019-04-27T10:56:47.659Z,985.20
2019-04-27T10:57:47.835Z,985.15
2019-04-27T10:58:47.997Z,985.12
2019-04-27T10:59:48.175Z,985.14
2019-04-27T11:00:48.352Z,985.13
2019-04-27T11:01:48.521Z,985.15
2019-04-27T11:02:48.693Z,985.13
2019-04-27T11:03:48.867Z,985.12
2019-04-27T11:04:49.042Z,985.12
2019-04-27T11:05:49.211Z,985.15
2019-04-27T11:06:49.393Z,985.24
2019-04-27T11:07:49.550Z,985.11
2019-04-27T11:08:49.728Z,985.10
2019-04-27T11:09:50.564Z,985.14
2019-04-27T11:10:50.071Z,985.06
2019-04-27T11:11:50.241Z,985.14
2019-04-27T11:12:50.376Z,985.09
2019-04-27T11:13:50.551Z,985.00
2019-04-27T11:14:50.734Z,985.09
2019-04-27T11:15:50.885Z,985.10
2019-04-27T11:16:51.090Z,985.10
2019-04-27T11:17:51.218Z,985.10
2019-04-27T11:18:51.358Z,985.15
2019-04-27T11:19:51.537Z,985.16
2019-04-27T11:20:51.761Z,985.16
2019-04-27T11:21:51.868Z,985.14
2019-04-27T11:22:52.057Z,985.16
2019-04-27T11:23:52.177Z,985.20
2019-04-27T11:24:52.339Z,985.20
2019-04-27T11:25:52.522Z,985.16
2019-04-27T11:26:52.686Z,985.12
2019-04-27T11:27:52.858Z,985.22
2019-04-27T11:28:53.029Z,985.17
2019-04-27T11:29:53.185Z,985.17
2019-04-27T11:30:53.368Z,985.17
2019-04-27T11:31:53.511Z,985.18
2019-04-27T11:32:56.611Z,985.21
2019-04-27T11:33:53.842Z,985.16
2019-04-27T11:34:55.729Z,985.17
2019-04-27T11:35:54.189Z,985.17
2019-04-27T11:36:55.459Z,985.13
2019-04-27T11:37:55.700Z,985.17
2019-04-27T11:38:56.474Z,985.16
2019-04-27T11:39:55.952Z,985.16
2019-04-27T11:40:56.653Z,985.24
2019-04-27T11:41:55.183Z,985.21
2019-04-27T11:42:56.979Z,985.19
2019-04-27T11:43:56.580Z,985.18
2019-04-27T11:44:58.238Z,985.13
2019-04-27T11:45:55.986Z,985.13
2019-04-27T11:46:56.016Z,985.15
2019-04-27T11:47:57.108Z,985.16
2019-04-27T11:48:58.306Z,985.13
2019-04-27T11:49:57.972Z,985.18
2019-04-27T11:50:56.655Z,985.12
2019-04-27T11:51:56.845Z,985.09
2019-04-27T11:52:56.999Z,985.10
2019-04-27T11:53:57.157Z,985.20
2019-04-27T11:54:57.327Z,985.13
2019-04-27T11:55:57.495Z,985.12
2019-04-27T11:56:57.647Z,985.12
2019-04-27T11:57:57.840Z,985.05
2019-04-27T11:58:57.973Z,985.10
2019-04-27T11:59:58.199Z,985.04
2019-04-27T12:00:58.308Z,985.04
2019-04-27T12:01:58.503Z,984.98
2019-04-27T12:02:58.671Z,985.01
2019-04-27T12:03:58.847Z,985.00
2019-04-27T12:04:59.022Z,984.95
2019-04-27T12:06:00.274Z,985.02
2019-04-27T12:06:59.371Z,985.01
2019-04-27T12:07:59.544Z,985.00
2019-04-27T12:08:59.716Z,984.97
2019-04-27T12:09:59.890Z,985.00
2019-04-27T12:11:00.067Z,984.95
2019-04-27T12:12:12.685Z,984.93
2019-04-27T12:13:00.407Z,984.98
2019-04-27T12:14:00.580Z,984.96
2019-04-27T12:15:00.769Z,984.94
2019-04-27T12:16:00.931Z,984.98
2019-04-27T12:17:01.104Z,984.96
2019-04-27T12:18:01.276Z,984.90
2019-04-27T12:19:01.451Z,984.89
2019-04-27T12:20:01.624Z,984.90
2019-04-27T12:21:01.799Z,984.88
2019-04-27T12:22:01.970Z,984.91
2019-04-27T12:23:02.145Z,984.91
2019-04-27T12:24:02.320Z,984.92
2019-04-27T12:25:02.492Z,984.88
2019-04-27T12:26:02.675Z,984.93
2019-04-27T12:27:02.838Z,984.92
2019-04-27T12:28:03.013Z,984.96
2019-04-27T12:29:03.185Z,984.99
2019-04-27T12:30:03.360Z,984.98
2019-04-27T12:31:03.535Z,984.97
2019-04-27T12:32:05.545Z,985.01
2019-04-27T12:33:03.884Z,984.98
2019-04-27T12:34:04.053Z,984.94
2019-04-27T12:35:04.237Z,984.87
2019-04-27T12:36:04.399Z,984.85
2019-04-27T12:37:07.118Z,984.92
2019-04-27T12:38:05.847Z,984.87
2019-04-27T12:39:05.521Z,984.86
2019-04-27T12:40:05.925Z,984.90
2019-04-27T12:41:06.784Z,984.91
2019-04-27T12:42:06.076Z,984.83
2019-04-27T12:43:05.615Z,984.92
2019-04-27T12:44:07.156Z,984.89
2019-04-27T12:45:05.959Z,984.91
2019-04-27T12:46:06.134Z,984.83
2019-04-27T12:47:06.358Z,984.82
2019-04-27T12:48:06.478Z,984.81
2019-04-27T12:49:06.652Z,984.78
2019-04-27T12:50:06.822Z,984.74
2019-04-27T12:51:06.998Z,984.68
2019-04-27T12:52:07.168Z,984.75
2019-04-27T12:53:07.343Z,984.69
2019-04-27T12:54:07.575Z,984.68
2019-04-27T12:55:07.774Z,984.62
2019-04-27T12:56:07.921Z,984.71
2019-04-27T12:57:08.094Z,984.69
2019-04-27T12:58:08.265Z,984.63
2019-04-27T12:59:08.437Z,984.64
2019-04-27T13:00:08.615Z,984.65
2019-04-27T13:01:08.787Z,984.63
2019-04-27T13:02:08.961Z,984.62
2019-04-27T13:03:09.134Z,984.66
2019-04-27T13:04:09.304Z,984.64
2019-04-27T13:05:09.478Z,984.66
2019-04-27T13:06:09.653Z,984.69
2019-04-27T13:07:09.823Z,984.63
2019-04-27T13:08:09.995Z,984.68
2019-04-27T13:09:10.169Z,984.73
2019-04-27T13:10:10.338Z,984.73
2019-04-27T13:11:10.511Z,984.77
2019-04-27T13:12:10.777Z,984.69
2019-04-27T13:13:10.848Z,984.80
2019-04-27T13:14:11.024Z,984.77
2019-04-27T13:15:11.194Z,984.78
2019-04-27T13:16:11.367Z,984.83
2019-04-27T13:17:11.541Z,984.76
2019-04-27T13:18:11.713Z,984.77
2019-04-27T13:19:11.886Z,984.73
2019-04-27T13:20:12.060Z,984.70
2019-04-27T13:21:12.230Z,984.64
2019-04-27T13:22:12.406Z,984.56
2019-04-27T13:23:12.577Z,984.57
2019-04-27T13:24:12.746Z,984.55
2019-04-27T13:25:12.918Z,984.48
2019-04-27T13:26:13.089Z,984.45
2019-04-27T13:27:13.265Z,984.47
2019-04-27T13:28:13.443Z,984.47
2019-04-27T13:29:13.607Z,984.38
2019-04-27T13:30:13.778Z,984.40
2019-04-27T13:31:15.545Z,984.37
2019-04-27T13:32:14.119Z,984.36
2019-04-27T13:33:17.185Z,984.30
2019-04-27T13:34:15.908Z,984.33
2019-04-27T13:35:15.821Z,984.35
2019-04-27T13:36:15.025Z,984.34
2019-04-27T13:37:15.697Z,984.38
2019-04-27T13:38:17.791Z,984.36
2019-04-27T13:39:15.776Z,984.38
2019-04-27T13:40:17.075Z,984.35
2019-04-27T13:41:27.478Z,984.36
2019-04-27T13:42:15.856Z,984.37
2019-04-27T13:43:16.708Z,984.34
2019-04-27T13:44:16.214Z,984.24
2019-04-27T13:45:16.622Z,984.33
2019-04-27T13:46:16.558Z,984.26
2019-04-27T13:47:17.159Z,984.33
2019-04-27T13:48:16.900Z,984.27
2019-04-27T13:49:17.835Z,984.28
2019-04-27T13:50:17.253Z,984.29
2019-04-27T13:51:17.427Z,984.26
2019-04-27T13:52:17.674Z,984.22
2019-04-27T13:53:17.812Z,984.25
2019-04-27T13:54:25.415Z,984.23
2019-04-27T13:55:18.145Z,984.22
2019-04-27T13:56:18.319Z,984.23
2019-04-27T13:57:18.512Z,984.18
2019-04-27T13:58:18.880Z,984.20
2019-04-27T13:59:18.865Z,984.16
2019-04-27T14:00:19.039Z,984.19
2019-04-27T14:01:19.215Z,984.13
2019-04-27T14:02:23.379Z,984.14
2019-04-27T14:03:21.017Z,984.17
2019-04-27T14:04:19.731Z,984.12
2019-04-27T14:05:19.902Z,984.13
2019-04-27T14:06:20.073Z,984.10
2019-04-27T14:07:20.255Z,984.08
2019-04-27T14:08:20.423Z,984.13
2019-04-27T14:09:20.597Z,984.13
2019-04-27T14:10:20.770Z,984.12
2019-04-27T14:11:20.943Z,984.19
2019-04-27T14:12:21.647Z,984.19
2019-04-27T14:13:21.284Z,984.12
2019-04-27T14:14:21.457Z,984.13
2019-04-27T14:15:21.629Z,984.08
2019-04-27T14:16:21.801Z,984.09
2019-04-27T14:17:22.024Z,984.09
2019-04-27T14:18:22.146Z,984.08
2019-04-27T14:19:22.318Z,984.07
2019-04-27T14:20:22.488Z,984.06
2019-04-27T14:21:23.009Z,984.16
2019-04-27T14:22:22.847Z,984.12
2019-04-27T14:23:23.006Z,984.11
2019-04-27T14:24:30.031Z,984.16
2019-04-27T14:25:23.350Z,984.13
2019-04-27T14:26:23.523Z,984.08
2019-04-27T14:27:23.741Z,984.07
2019-04-27T14:28:23.870Z,984.05
2019-04-27T14:29:24.047Z,984.02
2019-04-27T14:30:24.216Z,984.07
2019-04-27T14:31:24.394Z,984.01
2019-04-27T14:32:24.568Z,983.93
2019-04-27T14:33:24.741Z,983.95
2019-04-27T14:34:24.911Z,983.93
2019-04-27T14:35:25.085Z,983.93
2019-04-27T14:36:25.258Z,983.90
2019-04-27T14:37:25.428Z,983.93
2019-04-27T14:38:25.601Z,983.87
2019-04-27T14:39:25.775Z,983.86
2019-04-27T14:40:25.954Z,983.86
2019-04-27T14:41:26.123Z,983.89
2019-04-27T14:42:26.294Z,983.89
2019-04-27T14:43:26.467Z,983.83
2019-04-27T14:44:26.640Z,983.84
2019-04-27T14:45:28.540Z,983.86
2019-04-27T14:46:28.311Z,983.82
2019-04-27T14:47:27.161Z,983.86
2019-04-27T14:48:29.292Z,983.77
2019-04-27T14:49:29.038Z,983.72
2019-04-27T14:50:27.681Z,983.72
2019-04-27T14:51:27.854Z,983.68
2019-04-27T14:52:28.021Z,983.70
2019-04-27T14:53:28.371Z,983.70
2019-04-27T14:54:30.191Z,983.78
2019-04-27T14:55:30.085Z,983.78
2019-04-27T14:56:28.720Z,983.88
2019-04-27T14:57:29.211Z,984.07
2019-04-27T14:58:29.063Z,984.23
2019-04-27T14:59:30.210Z,984.30
2019-04-27T15:00:30.636Z,984.46
2019-04-27T15:01:29.585Z,984.43
2019-04-27T15:02:29.757Z,984.42
2019-04-27T15:03:29.930Z,984.44
2019-04-27T15:04:31.392Z,984.55
2019-04-27T15:05:30.279Z,984.56
2019-04-27T15:06:30.457Z,984.47
2019-04-27T15:07:30.617Z,984.43
2019-04-27T15:08:30.788Z,984.48
2019-04-27T15:09:30.959Z,984.49
2019-04-27T15:10:32.982Z,984.50
2019-04-27T15:11:31.644Z,984.50
2019-04-27T15:12:32.395Z,984.55
2019-04-27T15:13:31.655Z,984.57
2019-04-27T15:14:31.822Z,984.58
2019-04-27T15:15:32.491Z,984.62
2019-04-27T15:16:32.165Z,984.64
2019-04-27T15:17:32.342Z,984.70
2019-04-27T15:18:34.649Z,984.76
2019-04-27T15:19:32.682Z,984.71
2019-04-27T15:20:32.887Z,984.70
2019-04-27T15:21:38.243Z,984.69
2019-04-27T15:22:33.197Z,984.68
2019-04-27T15:23:33.371Z,984.63
2019-04-27T15:24:33.544Z,984.57
2019-04-27T15:25:42.364Z,984.58
2019-04-27T15:26:33.881Z,984.61
2019-04-27T15:27:37.434Z,984.66
2019-04-27T15:28:34.222Z,984.67
2019-04-27T15:29:34.393Z,984.66
2019-04-27T15:30:35.163Z,984.74
2019-04-27T15:31:34.739Z,984.79
2019-04-27T15:32:39.395Z,984.82
2019-04-27T15:33:35.079Z,984.88
2019-04-27T15:34:35.675Z,984.95
2019-04-27T15:35:39.745Z,984.97
2019-04-27T15:36:35.602Z,985.02
2019-04-27T15:37:35.774Z,985.04
2019-04-27T15:38:35.948Z,985.08
2019-04-27T15:39:36.117Z,985.10
2019-04-27T15:40:36.290Z,985.18
2019-04-27T15:41:36.466Z,985.19
2019-04-27T15:42:41.616Z,985.18
2019-04-27T15:43:38.649Z,985.24
2019-04-27T15:44:41.117Z,985.22
2019-04-27T15:45:38.637Z,985.27
2019-04-27T15:46:38.997Z,985.28
2019-04-27T15:47:38.340Z,985.24
2019-04-27T15:48:38.495Z,985.21
2019-04-27T15:49:38.783Z,985.30
2019-04-27T15:50:38.718Z,985.30
2019-04-27T15:51:38.368Z,985.25
2019-04-27T15:52:38.451Z,985.28
2019-04-27T15:53:41.130Z,985.29
2019-04-27T15:54:38.697Z,985.28
2019-04-27T15:55:39.500Z,985.31
2019-04-27T15:56:39.039Z,985.22
2019-04-27T15:57:42.572Z,985.22
2019-04-27T15:58:39.380Z,985.21
2019-04-27T15:59:40.970Z,985.19
2019-04-27T16:00:39.731Z,985.14
2019-04-27T16:01:39.906Z,985.18
2019-04-27T16:02:40.077Z,985.13
2019-04-27T16:03:40.244Z,985.18
2019-04-27T16:04:44.463Z,985.19
2019-04-27T16:05:40.589Z,985.18
2019-04-27T16:06:42.919Z,985.24
2019-04-27T16:07:40.923Z,985.17
2019-04-27T16:08:44.973Z,985.20
2019-04-27T16:09:41.271Z,985.19
2019-04-27T16:10:41.440Z,985.11
2019-04-27T16:11:41.612Z,985.10
2019-04-27T16:12:50.352Z,985.07
2019-04-27T16:13:41.952Z,985.10
2019-04-27T16:14:44.141Z,985.03
2019-04-27T16:15:42.291Z,985.04
2019-04-27T16:16:42.467Z,984.98
2019-04-27T16:17:50.945Z,984.92
2019-04-27T16:18:42.813Z,984.91
2019-04-27T16:19:48.911Z,984.83
2019-04-27T16:20:43.157Z,984.74
2019-04-27T16:21:47.837Z,984.63
2019-04-27T16:22:43.498Z,984.58
2019-04-27T16:23:43.671Z,984.40
2019-04-27T16:24:43.840Z,984.40
2019-04-27T16:25:48.565Z,984.43
2019-04-27T16:26:46.348Z,984.44
2019-04-27T16:27:44.352Z,984.40
2019-04-27T16:28:49.607Z,984.40
2019-04-27T16:29:44.691Z,984.37
2019-04-27T16:30:45.792Z,984.44
2019-04-27T16:31:45.082Z,984.42
2019-04-27T16:32:46.407Z,984.42